TimeCST,TemperatureF,Dew PointF,Humidity,Sea Level PressureIn,VisibilityMPH,Wind Direction,Wind SpeedMPH,Gust SpeedMPH,PrecipitationIn,Events,Conditions,WindDirDegrees,DateUTC
12:00 AM,64.4,64.4,100,30.21,6.2,North,9.2,-,N/A,,Mostly Cloudy,360,2013-08-24 06:00:00
12:20 AM,-9999,-9999,N/A,-9999,6.2,North,9.2,-,N/A,,Light Drizzle,360,2013-08-24 06:20:00
1:00 AM,64.4,62.6,94,30.18,6.2,NNE,6.9,-,N/A,,Light Drizzle,30,2013-08-24 07:00:00
2:00 AM,64.4,62.6,94,30.18,6.2,NNE,6.9,-,N/A,,Light Drizzle,30,2013-08-24 08:00:00
3:00 AM,64.4,62.6,94,30.18,6.2,North,3.5,-,N/A,,Light Drizzle,360,2013-08-24 09:00:00
4:00 AM,64.4,60.8,88,30.18,5.0,NNE,4.6,-,N/A,,Mostly Cloudy,30,2013-08-24 10:00:00
5:00 AM,62.6,60.8,94,30.18,6.2,North,5.8,-,N/A,,Scattered Clouds,360,2013-08-24 11:00:00
6:00 AM,63,61,90,29.86,25,North,5.8,,,,Partly Cloudy,0,2013-08-24 12:00:00
6:00 AM,62.6,60.8,94,30.18,6.2,North,5.8,-,N/A,,Scattered Clouds,360,2013-08-24 12:00:00
7:00 AM,64.4,60.8,88,30.21,6.2,Calm,Calm,-,N/A,,Scattered Clouds,0,2013-08-24 13:00:00
8:00 AM,64.4,62.6,94,30.24,6.2,Calm,Calm,-,N/A,,Mostly Cloudy,0,2013-08-24 14:00:00
9:00 AM,66.2,62.6,88,30.24,6.2,Calm,Calm,-,N/A,,Mostly Cloudy,0,2013-08-24 15:00:00
10:00 AM,68.0,60.8,78,30.24,6.2,NE,3.5,-,N/A,,Light Drizzle,50,2013-08-24 16:00:00
10:19 AM,-9999,-9999,N/A,-9999,6.2,NE,4.6,-,N/A,,Drizzle,40,2013-08-24 16:19:00
10:36 AM,-9999,-9999,N/A,-9999,6.2,NNE,3.5,-,N/A,,Mostly Cloudy,20,2013-08-24 16:36:00
11:00 AM,69.8,62.6,78,30.24,6.2,North,4.6,-,N/A,Rain,Rain,360,2013-08-24 17:00:00
11:15 AM,-9999,-9999,N/A,-9999,6.2,North,4.6,-,N/A,,Mostly Cloudy,360,2013-08-24 17:15:00
11:42 AM,-9999,-9999,N/A,-9999,6.2,Calm,Calm,-,N/A,,Drizzle,0,2013-08-24 17:42:00
12:00 PM,69.8,62.6,78,30.24,6.2,WSW,4.6,-,N/A,,Light Drizzle,250,2013-08-24 18:00:00
12:25 PM,-9999,-9999,N/A,-9999,6.2,Calm,Calm,-,N/A,,Scattered Clouds,0,2013-08-24 18:25:00
1:00 PM,71.6,64.4,78,30.18,6.2,South,4.6,-,N/A,,Scattered Clouds,170,2013-08-24 19:00:00
1:42 PM,-9999,-9999,N/A,-9999,4.3,South,13.8,-,N/A,Rain,Heavy Rain,180,2013-08-24 19:42:00
2:00 PM,66.2,64.4,94,3.01,5.0,South,13.8,-,N/A,Rain,Light Rain,180,2013-08-24 20:00:00
2:14 PM,-9999,-9999,N/A,-9999,3.1,South,9.2,-,N/A,Rain,Rain,180,2013-08-24 20:14:00
2:26 PM,-9999,-9999,N/A,-9999,3.7,South,11.5,-,N/A,Rain-Thunderstorm,Thunderstorms and Rain,180,2013-08-24 20:26:00
2:40 PM,-9999,-9999,N/A,-9999,6.2,South,11.5,-,N/A,,Mostly Cloudy,180,2013-08-24 20:40:00
3:00 PM,66.2,33.8,30,30.18,6.2,South,11.5,-,N/A,,Mostly Cloudy,180,2013-08-24 21:00:00
3:35 PM,-9999,-9999,N/A,-9999,3.7,South,6.9,-,N/A,Rain,Heavy Rain,180,2013-08-24 21:35:00
4:00 PM,64.4,62.6,94,30.18,-9999.0,North,-9999.0,-,N/A,,Light Drizzle,0,2013-08-24 22:00:00
4:38 PM,-9999,-9999,N/A,-9999,-9999.0,South,9.2,-,N/A,,Mostly Cloudy,180,2013-08-24 22:38:00
5:00 PM,66.2,62.6,88,30.18,6.2,South,9.2,-,N/A,,Mostly Cloudy,190,2013-08-24 23:00:00
6:00 PM,66,62,85,29.91,25,SSW,6.9,,,,Partly Cloudy,200,2013-08-25 00:00:00
6:00 PM,66.2,62.6,88,30.21,6.2,SSW,6.9,-,N/A,,Mostly Cloudy,200,2013-08-25 00:00:00
7:00 PM,66.2,62.6,88,30.24,6.2,South,4.6,-,N/A,,Mostly Cloudy,180,2013-08-25 01:00:00
8:00 PM,64.4,62.6,94,30.24,6.2,South,4.6,-,N/A,,Mostly Cloudy,180,2013-08-25 02:00:00
9:00 PM,64.4,62.6,94,30.27,6.2,SSW,4.6,-,N/A,,Scattered Clouds,200,2013-08-25 03:00:00
10:00 PM,64.4,62.6,94,30.27,5.0,Calm,Calm,-,N/A,,Scattered Clouds,0,2013-08-25 04:00:00
11:00 PM,64.4,62.6,94,30.27,5.0,Calm,Calm,-,N/A,,Scattered Clouds,0,2013-08-25 05:00:00
11:30 PM,-9999,-9999,N/A,-9999,1.9,Calm,Calm,-,N/A,,Drizzle,0,2013-08-25 05:30:00